Terminal Aerodrome Forecast
Issued by NWS

Home | Current Version | Previous Version | Graphics & Text | Print | Product List | Glossary On
Versions: 1 2 3 4 5 6 7 8 9 10 11 12 13 14 15 16 17 18 19
994
FTUS43 KFGF 070225 AAA
TAFBJI
TAF AMD
KBJI 070225Z 0702/0724 20009KT P6SM BKN060
      TEMPO 0702/0703 -RASN
     FM070300 22009KT P6SM BKN050
     FM070500 23012G18KT 4SM -SN BKN050
     FM071000 27015G22KT 2SM -SN OVC015
     FM071500 29018G25KT 3/4SM -SN BKN010=

USA.gov is the U.S. government's official web portal to all federal, state and local government web resources and services.